sensor_id;sensor_type;location;lat;lon;timestamp;P1;durP1;ratioP1;P2;durP2;ratioP2
8636;SDS011;4356;49.068;8.658;2022-09-03T00:01:52;1.30;;;1.20;;
8636;SDS011;4356;49.068;8.658;2022-09-03T00:07:22;2.57;;;1.50;;
8636;SDS011;4356;49.068;8.658;2022-09-03T00:09:59;1.63;;;1.33;;
8636;SDS011;4356;49.068;8.658;2022-09-03T00:12:31;3.90;;;1.63;;
8636;SDS011;4356;49.068;8.658;2022-09-03T00:15:03;1.33;;;1.23;;
8636;SDS011;4356;49.068;8.658;2022-09-03T00:17:52;1.30;;;1.30;;
8636;SDS011;4356;49.068;8.658;2022-09-03T00:20:32;2.60;;;1.73;;
8636;SDS011;4356;49.068;8.658;2022-09-03T00:23:04;1.23;;;1.23;;
8636;SDS011;4356;49.068;8.658;2022-09-03T00:25:37;1.63;;;1.53;;
8636;SDS011;4356;49.068;8.658;2022-09-03T00:28:10;1.43;;;1.33;;
8636;SDS011;4356;49.068;8.658;2022-09-03T00:30:40;3.17;;;1.67;;
8636;SDS011;4356;49.068;8.658;2022-09-03T00:33:10;2.93;;;1.43;;
8636;SDS011;4356;49.068;8.658;2022-09-03T00:35:47;1.00;;;1.00;;
8636;SDS011;4356;49.068;8.658;2022-09-03T00:38:19;2.70;;;1.40;;
8636;SDS011;4356;49.068;8.658;2022-09-03T00:43:45;1.47;;;1.37;;
8636;SDS011;4356;49.068;8.658;2022-09-03T00:46:30;1.47;;;1.37;;
8636;SDS011;4356;49.068;8.658;2022-09-03T00:49:21;1.47;;;1.40;;
8636;SDS011;4356;49.068;8.658;2022-09-03T00:55:27;4.97;;;1.90;;
8636;SDS011;4356;49.068;8.658;2022-09-03T01:00:56;1.77;;;1.20;;
8636;SDS011;4356;49.068;8.658;2022-09-03T01:03:31;1.20;;;1.20;;
8636;SDS011;4356;49.068;8.658;2022-09-03T01:07:01;1.63;;;1.20;;
8636;SDS011;4356;49.068;8.658;2022-09-03T01:12:05;1.90;;;1.47;;
8636;SDS011;4356;49.068;8.658;2022-09-03T01:15:11;1.17;;;1.17;;
8636;SDS011;4356;49.068;8.658;2022-09-03T01:17:44;1.53;;;1.43;;
8636;SDS011;4356;49.068;8.658;2022-09-03T01:26:01;4.13;;;1.50;;
8636;SDS011;4356;49.068;8.658;2022-09-03T01:50:42;2.53;;;1.60;;
8636;SDS011;4356;49.068;8.658;2022-09-03T01:59:27;3.33;;;1.27;;
8636;SDS011;4356;49.068;8.658;2022-09-03T02:04:30;3.07;;;1.63;;
8636;SDS011;4356;49.068;8.658;2022-09-03T02:06:56;1.53;;;1.43;;
8636;SDS011;4356;49.068;8.658;2022-09-03T02:09:25;3.27;;;1.17;;
8636;SDS011;4356;49.068;8.658;2022-09-03T02:11:55;1.63;;;1.53;;
8636;SDS011;4356;49.068;8.658;2022-09-03T02:14:28;2.30;;;1.40;;
8636;SDS011;4356;49.068;8.658;2022-09-03T02:16:55;1.77;;;1.67;;
8636;SDS011;4356;49.068;8.658;2022-09-03T02:19:25;1.50;;;1.40;;
8636;SDS011;4356;49.068;8.658;2022-09-03T02:21:52;2.80;;;1.40;;
8636;SDS011;4356;49.068;8.658;2022-09-03T02:24:20;2.00;;;1.40;;
8636;SDS011;4356;49.068;8.658;2022-09-03T02:26:46;1.63;;;1.40;;
8636;SDS011;4356;49.068;8.658;2022-09-03T02:29:13;1.37;;;1.37;;
8636;SDS011;4356;49.068;8.658;2022-09-03T02:31:40;1.40;;;1.30;;
8636;SDS011;4356;49.068;8.658;2022-09-03T02:34:06;1.40;;;1.30;;
8636;SDS011;4356;49.068;8.658;2022-09-03T02:36:36;9.07;;;1.60;;
8636;SDS011;4356;49.068;8.658;2022-09-03T02:39:04;1.50;;;1.40;;
8636;SDS011;4356;49.068;8.658;2022-09-03T02:41:31;1.80;;;1.70;;
8636;SDS011;4356;49.068;8.658;2022-09-03T02:46:58;2.07;;;1.70;;
8636;SDS011;4356;49.068;8.658;2022-09-03T02:49:27;1.77;;;1.67;;
8636;SDS011;4356;49.068;8.658;2022-09-03T02:51:56;1.60;;;1.50;;
8636;SDS011;4356;49.068;8.658;2022-09-03T02:54:30;1.40;;;1.40;;
8636;SDS011;4356;49.068;8.658;2022-09-03T02:57:00;1.53;;;1.33;;
8636;SDS011;4356;49.068;8.658;2022-09-03T02:59:25;2.10;;;1.37;;
8636;SDS011;4356;49.068;8.658;2022-09-03T03:01:52;1.87;;;1.77;;
8636;SDS011;4356;49.068;8.658;2022-09-03T03:04:19;1.83;;;1.50;;
8636;SDS011;4356;49.068;8.658;2022-09-03T03:06:45;2.57;;;1.33;;
8636;SDS011;4356;49.068;8.658;2022-09-03T03:09:11;1.40;;;1.30;;
8636;SDS011;4356;49.068;8.658;2022-09-03T03:11:36;1.67;;;1.57;;
8636;SDS011;4356;49.068;8.658;2022-09-03T03:14:02;1.33;;;1.33;;
8636;SDS011;4356;49.068;8.658;2022-09-03T03:16:28;1.53;;;1.50;;
8636;SDS011;4356;49.068;8.658;2022-09-03T03:18:55;1.30;;;1.30;;
8636;SDS011;4356;49.068;8.658;2022-09-03T03:21:21;1.43;;;1.30;;
8636;SDS011;4356;49.068;8.658;2022-09-03T03:23:47;1.50;;;1.40;;
8636;SDS011;4356;49.068;8.658;2022-09-03T03:26:14;2.53;;;1.33;;
8636;SDS011;4356;49.068;8.658;2022-09-03T03:28:44;2.37;;;1.40;;
8636;SDS011;4356;49.068;8.658;2022-09-03T03:31:13;1.20;;;1.20;;
8636;SDS011;4356;49.068;8.658;2022-09-03T03:33:49;3.10;;;1.30;;
8636;SDS011;4356;49.068;8.658;2022-09-03T03:36:18;4.33;;;1.40;;
8636;SDS011;4356;49.068;8.658;2022-09-03T03:38:45;1.27;;;1.20;;
8636;SDS011;4356;49.068;8.658;2022-09-03T03:41:13;1.20;;;1.20;;
8636;SDS011;4356;49.068;8.658;2022-09-03T03:43:41;1.30;;;1.30;;
8636;SDS011;4356;49.068;8.658;2022-09-03T03:46:07;2.67;;;1.33;;
8636;SDS011;4356;49.068;8.658;2022-09-03T03:48:33;1.23;;;1.23;;
8636;SDS011;4356;49.068;8.658;2022-09-03T03:51:02;1.70;;;1.07;;
8636;SDS011;4356;49.068;8.658;2022-09-03T03:53:34;1.70;;;1.60;;
8636;SDS011;4356;49.068;8.658;2022-09-03T03:56:03;5.10;;;1.40;;
8636;SDS011;4356;49.068;8.658;2022-09-03T03:58:31;1.30;;;1.23;;
8636;SDS011;4356;49.068;8.658;2022-09-03T04:01:07;2.70;;;1.30;;
8636;SDS011;4356;49.068;8.658;2022-09-03T04:03:35;3.13;;;1.30;;
8636;SDS011;4356;49.068;8.658;2022-09-03T04:06:01;1.10;;;1.10;;
8636;SDS011;4356;49.068;8.658;2022-09-03T04:08:28;2.20;;;1.30;;
8636;SDS011;4356;49.068;8.658;2022-09-03T04:10:59;1.43;;;1.20;;
8636;SDS011;4356;49.068;8.658;2022-09-03T04:13:29;1.80;;;1.03;;
8636;SDS011;4356;49.068;8.658;2022-09-03T04:18:35;1.17;;;1.07;;
8636;SDS011;4356;49.068;8.658;2022-09-03T04:21:09;1.40;;;1.30;;
8636;SDS011;4356;49.068;8.658;2022-09-03T04:23:38;1.20;;;1.20;;
8636;SDS011;4356;49.068;8.658;2022-09-03T04:26:09;2.20;;;1.17;;
8636;SDS011;4356;49.068;8.658;2022-09-03T04:28:36;1.20;;;1.20;;
8636;SDS011;4356;49.068;8.658;2022-09-03T04:31:06;2.10;;;1.17;;
8636;SDS011;4356;49.068;8.658;2022-09-03T04:33:34;1.20;;;1.20;;
8636;SDS011;4356;49.068;8.658;2022-09-03T04:36:01;1.10;;;1.10;;
8636;SDS011;4356;49.068;8.658;2022-09-03T04:38:30;3.63;;;1.50;;
8636;SDS011;4356;49.068;8.658;2022-09-03T04:40:57;1.90;;;1.10;;
8636;SDS011;4356;49.068;8.658;2022-09-03T04:43:25;1.40;;;1.30;;
8636;SDS011;4356;49.068;8.658;2022-09-03T04:45:54;2.83;;;1.47;;
8636;SDS011;4356;49.068;8.658;2022-09-03T04:48:31;1.33;;;1.23;;
8636;SDS011;4356;49.068;8.658;2022-09-03T04:51:01;1.63;;;1.30;;
8636;SDS011;4356;49.068;8.658;2022-09-03T04:53:33;1.53;;;1.43;;
8636;SDS011;4356;49.068;8.658;2022-09-03T04:56:01;1.30;;;1.20;;
8636;SDS011;4356;49.068;8.658;2022-09-03T04:58:27;1.40;;;0.97;;
8636;SDS011;4356;49.068;8.658;2022-09-03T05:00:53;1.13;;;1.03;;
8636;SDS011;4356;49.068;8.658;2022-09-03T05:03:19;2.33;;;1.40;;
8636;SDS011;4356;49.068;8.658;2022-09-03T05:05:55;1.20;;;1.10;;
8636;SDS011;4356;49.068;8.658;2022-09-03T05:08:20;1.20;;;1.20;;
8636;SDS011;4356;49.068;8.658;2022-09-03T05:10:47;1.97;;;1.10;;
8636;SDS011;4356;49.068;8.658;2022-09-03T05:13:13;1.20;;;1.20;;
8636;SDS011;4356;49.068;8.658;2022-09-03T05:15:38;1.07;;;0.90;;
8636;SDS011;4356;49.068;8.658;2022-09-03T05:18:06;1.47;;;1.37;;
8636;SDS011;4356;49.068;8.658;2022-09-03T05:20:31;2.43;;;1.17;;
8636;SDS011;4356;49.068;8.658;2022-09-03T05:23:00;1.50;;;1.37;;
8636;SDS011;4356;49.068;8.658;2022-09-03T05:25:27;1.00;;;1.00;;
8636;SDS011;4356;49.068;8.658;2022-09-03T05:27:56;2.00;;;1.27;;
8636;SDS011;4356;49.068;8.658;2022-09-03T05:30:22;0.90;;;0.90;;
8636;SDS011;4356;49.068;8.658;2022-09-03T05:32:48;1.00;;;1.00;;
8636;SDS011;4356;49.068;8.658;2022-09-03T05:35:13;1.93;;;1.30;;
8636;SDS011;4356;49.068;8.658;2022-09-03T05:37:39;1.90;;;1.40;;
8636;SDS011;4356;49.068;8.658;2022-09-03T05:40:05;1.90;;;1.37;;
8636;SDS011;4356;49.068;8.658;2022-09-03T05:42:32;1.70;;;1.40;;
8636;SDS011;4356;49.068;8.658;2022-09-03T05:45:02;2.30;;;0.97;;
8636;SDS011;4356;49.068;8.658;2022-09-03T05:47:38;5.03;;;1.50;;
8636;SDS011;4356;49.068;8.658;2022-09-03T05:50:07;2.63;;;1.40;;
8636;SDS011;4356;49.068;8.658;2022-09-03T05:52:35;1.43;;;1.20;;
8636;SDS011;4356;49.068;8.658;2022-09-03T05:55:01;1.60;;;1.50;;
8636;SDS011;4356;49.068;8.658;2022-09-03T05:57:27;1.00;;;1.00;;
8636;SDS011;4356;49.068;8.658;2022-09-03T05:59:54;1.20;;;1.10;;
8636;SDS011;4356;49.068;8.658;2022-09-03T06:02:20;1.20;;;1.20;;
8636;SDS011;4356;49.068;8.658;2022-09-03T06:04:46;2.17;;;1.10;;
8636;SDS011;4356;49.068;8.658;2022-09-03T06:07:11;1.47;;;1.37;;
8636;SDS011;4356;49.068;8.658;2022-09-03T06:09:37;4.47;;;2.03;;
8636;SDS011;4356;49.068;8.658;2022-09-03T06:12:02;1.17;;;1.17;;
8636;SDS011;4356;49.068;8.658;2022-09-03T06:14:28;2.33;;;1.37;;
8636;SDS011;4356;49.068;8.658;2022-09-03T06:16:53;2.00;;;0.83;;
8636;SDS011;4356;49.068;8.658;2022-09-03T06:19:20;3.07;;;1.20;;
8636;SDS011;4356;49.068;8.658;2022-09-03T06:21:46;2.73;;;1.50;;
8636;SDS011;4356;49.068;8.658;2022-09-03T06:24:14;2.07;;;1.20;;
8636;SDS011;4356;49.068;8.658;2022-09-03T06:26:44;1.10;;;1.07;;
8636;SDS011;4356;49.068;8.658;2022-09-03T06:29:10;3.57;;;1.63;;
8636;SDS011;4356;49.068;8.658;2022-09-03T06:31:37;3.17;;;1.50;;
8636;SDS011;4356;49.068;8.658;2022-09-03T06:34:03;1.00;;;1.00;;
8636;SDS011;4356;49.068;8.658;2022-09-03T06:36:30;1.87;;;1.30;;
8636;SDS011;4356;49.068;8.658;2022-09-03T06:38:56;1.17;;;1.17;;
8636;SDS011;4356;49.068;8.658;2022-09-03T06:41:23;2.77;;;1.43;;
8636;SDS011;4356;49.068;8.658;2022-09-03T06:43:58;2.27;;;1.40;;
8636;SDS011;4356;49.068;8.658;2022-09-03T06:46:27;1.60;;;1.50;;
8636;SDS011;4356;49.068;8.658;2022-09-03T06:48:55;2.13;;;1.30;;
8636;SDS011;4356;49.068;8.658;2022-09-03T06:51:21;1.43;;;1.43;;
8636;SDS011;4356;49.068;8.658;2022-09-03T06:53:52;2.33;;;1.40;;
8636;SDS011;4356;49.068;8.658;2022-09-03T06:56:21;2.63;;;1.50;;
8636;SDS011;4356;49.068;8.658;2022-09-03T06:58:52;2.40;;;1.37;;
8636;SDS011;4356;49.068;8.658;2022-09-03T07:01:22;4.73;;;1.47;;
8636;SDS011;4356;49.068;8.658;2022-09-03T07:03:55;1.13;;;1.13;;
8636;SDS011;4356;49.068;8.658;2022-09-03T07:06:23;4.60;;;1.53;;
8636;SDS011;4356;49.068;8.658;2022-09-03T07:08:51;5.17;;;1.43;;
8636;SDS011;4356;49.068;8.658;2022-09-03T07:11:17;4.27;;;1.50;;
8636;SDS011;4356;49.068;8.658;2022-09-03T07:13:47;1.40;;;1.30;;
8636;SDS011;4356;49.068;8.658;2022-09-03T07:16:15;6.30;;;1.40;;
8636;SDS011;4356;49.068;8.658;2022-09-03T07:18:42;1.57;;;1.47;;
8636;SDS011;4356;49.068;8.658;2022-09-03T07:21:09;3.00;;;1.40;;
8636;SDS011;4356;49.068;8.658;2022-09-03T07:23:41;7.33;;;1.50;;
8636;SDS011;4356;49.068;8.658;2022-09-03T07:26:11;3.77;;;1.60;;
8636;SDS011;4356;49.068;8.658;2022-09-03T07:28:39;3.57;;;1.60;;
8636;SDS011;4356;49.068;8.658;2022-09-03T07:31:10;7.10;;;1.33;;
8636;SDS011;4356;49.068;8.658;2022-09-03T07:33:39;2.07;;;1.37;;
8636;SDS011;4356;49.068;8.658;2022-09-03T07:36:09;2.70;;;1.20;;
8636;SDS011;4356;49.068;8.658;2022-09-03T07:38:38;2.23;;;1.50;;
8636;SDS011;4356;49.068;8.658;2022-09-03T07:41:05;5.57;;;1.40;;
8636;SDS011;4356;49.068;8.658;2022-09-03T07:43:34;1.80;;;1.63;;
8636;SDS011;4356;49.068;8.658;2022-09-03T07:46:02;1.90;;;1.47;;
8636;SDS011;4356;49.068;8.658;2022-09-03T07:48:27;1.63;;;1.40;;
8636;SDS011;4356;49.068;8.658;2022-09-03T07:50:56;3.37;;;1.70;;
8636;SDS011;4356;49.068;8.658;2022-09-03T07:53:25;7.40;;;2.00;;
8636;SDS011;4356;49.068;8.658;2022-09-03T07:56:07;5.13;;;2.17;;
8636;SDS011;4356;49.068;8.658;2022-09-03T07:58:35;5.47;;;1.50;;
8636;SDS011;4356;49.068;8.658;2022-09-03T08:01:06;4.63;;;1.70;;
8636;SDS011;4356;49.068;8.658;2022-09-03T08:03:36;2.50;;;1.93;;
8636;SDS011;4356;49.068;8.658;2022-09-03T08:06:04;5.40;;;1.87;;
8636;SDS011;4356;49.068;8.658;2022-09-03T08:08:31;1.67;;;1.57;;
8636;SDS011;4356;49.068;8.658;2022-09-03T08:11:06;1.90;;;1.60;;
8636;SDS011;4356;49.068;8.658;2022-09-03T08:13:35;5.47;;;1.70;;
8636;SDS011;4356;49.068;8.658;2022-09-03T08:16:09;5.20;;;1.63;;
8636;SDS011;4356;49.068;8.658;2022-09-03T08:18:36;6.10;;;1.47;;
8636;SDS011;4356;49.068;8.658;2022-09-03T08:21:07;2.60;;;1.60;;
8636;SDS011;4356;49.068;8.658;2022-09-03T08:23:39;6.60;;;1.63;;
8636;SDS011;4356;49.068;8.658;2022-09-03T08:26:06;2.07;;;1.37;;
8636;SDS011;4356;49.068;8.658;2022-09-03T08:28:33;3.40;;;1.60;;
8636;SDS011;4356;49.068;8.658;2022-09-03T08:31:06;2.03;;;1.13;;
8636;SDS011;4356;49.068;8.658;2022-09-03T08:33:35;1.33;;;1.33;;
8636;SDS011;4356;49.068;8.658;2022-09-03T08:36:03;2.97;;;1.80;;
8636;SDS011;4356;49.068;8.658;2022-09-03T08:38:31;1.50;;;1.40;;
8636;SDS011;4356;49.068;8.658;2022-09-03T08:43:48;12.10;;;1.97;;
8636;SDS011;4356;49.068;8.658;2022-09-03T08:46:47;4.43;;;1.50;;
8636;SDS011;4356;49.068;8.658;2022-09-03T08:49:32;4.47;;;1.50;;
8636;SDS011;4356;49.068;8.658;2022-09-03T08:52:36;5.97;;;1.77;;
8636;SDS011;4356;49.068;8.658;2022-09-03T08:58:10;2.63;;;1.77;;
8636;SDS011;4356;49.068;8.658;2022-09-03T09:00:57;2.97;;;1.80;;
8636;SDS011;4356;49.068;8.658;2022-09-03T09:03:41;1.73;;;1.63;;
8636;SDS011;4356;49.068;8.658;2022-09-03T09:06:27;2.50;;;2.20;;
8636;SDS011;4356;49.068;8.658;2022-09-03T09:11:55;2.67;;;1.90;;
8636;SDS011;4356;49.068;8.658;2022-09-03T09:17:50;1.70;;;1.70;;
8636;SDS011;4356;49.068;8.658;2022-09-03T09:23:30;2.30;;;2.10;;
8636;SDS011;4356;49.068;8.658;2022-09-03T09:26:00;1.90;;;1.77;;
8636;SDS011;4356;49.068;8.658;2022-09-03T09:28:32;2.13;;;1.93;;
8636;SDS011;4356;49.068;8.658;2022-09-03T09:31:00;1.87;;;1.63;;
8636;SDS011;4356;49.068;8.658;2022-09-03T09:33:29;2.77;;;1.57;;
8636;SDS011;4356;49.068;8.658;2022-09-03T09:35:58;2.83;;;2.50;;
8636;SDS011;4356;49.068;8.658;2022-09-03T09:38:28;1.77;;;1.73;;
8636;SDS011;4356;49.068;8.658;2022-09-03T09:41:06;5.40;;;2.10;;
8636;SDS011;4356;49.068;8.658;2022-09-03T09:43:37;2.07;;;1.97;;
8636;SDS011;4356;49.068;8.658;2022-09-03T09:46:05;2.00;;;1.90;;
8636;SDS011;4356;49.068;8.658;2022-09-03T09:48:38;2.07;;;1.97;;
8636;SDS011;4356;49.068;8.658;2022-09-03T09:51:31;1.97;;;1.87;;
8636;SDS011;4356;49.068;8.658;2022-09-03T09:56:37;2.10;;;1.90;;
8636;SDS011;4356;49.068;8.658;2022-09-03T09:59:08;2.30;;;2.20;;
8636;SDS011;4356;49.068;8.658;2022-09-03T10:01:38;1.80;;;1.80;;
8636;SDS011;4356;49.068;8.658;2022-09-03T10:04:23;3.93;;;2.30;;
8636;SDS011;4356;49.068;8.658;2022-09-03T10:06:55;2.30;;;2.20;;
8636;SDS011;4356;49.068;8.658;2022-09-03T10:09:30;2.17;;;2.07;;
8636;SDS011;4356;49.068;8.658;2022-09-03T10:14:38;2.37;;;2.17;;
8636;SDS011;4356;49.068;8.658;2022-09-03T10:17:13;2.20;;;2.10;;
8636;SDS011;4356;49.068;8.658;2022-09-03T10:19:57;2.20;;;2.07;;
8636;SDS011;4356;49.068;8.658;2022-09-03T10:22:53;2.30;;;2.20;;
8636;SDS011;4356;49.068;8.658;2022-09-03T10:25:22;2.33;;;2.23;;
8636;SDS011;4356;49.068;8.658;2022-09-03T10:27:52;2.10;;;2.00;;
8636;SDS011;4356;49.068;8.658;2022-09-03T10:30:19;3.60;;;2.00;;
8636;SDS011;4356;49.068;8.658;2022-09-03T10:33:08;2.37;;;2.27;;
8636;SDS011;4356;49.068;8.658;2022-09-03T10:35:42;2.63;;;2.20;;
8636;SDS011;4356;49.068;8.658;2022-09-03T10:46:43;2.10;;;2.00;;
8636;SDS011;4356;49.068;8.658;2022-09-03T11:00:52;2.20;;;2.10;;
8636;SDS011;4356;49.068;8.658;2022-09-03T11:06:19;1.93;;;1.87;;
8636;SDS011;4356;49.068;8.658;2022-09-03T11:11:41;2.23;;;2.13;;
8636;SDS011;4356;49.068;8.658;2022-09-03T11:14:37;2.47;;;2.37;;
8636;SDS011;4356;49.068;8.658;2022-09-03T11:17:11;3.30;;;2.30;;
8636;SDS011;4356;49.068;8.658;2022-09-03T11:19:44;2.47;;;2.37;;
8636;SDS011;4356;49.068;8.658;2022-09-03T11:22:18;2.57;;;2.37;;
8636;SDS011;4356;49.068;8.658;2022-09-03T11:24:49;4.63;;;2.70;;
8636;SDS011;4356;49.068;8.658;2022-09-03T11:27:31;3.10;;;2.90;;
8636;SDS011;4356;49.068;8.658;2022-09-03T11:30:13;2.77;;;2.57;;
8636;SDS011;4356;49.068;8.658;2022-09-03T11:32:49;2.70;;;2.43;;
8636;SDS011;4356;49.068;8.658;2022-09-03T11:37:59;2.80;;;2.60;;
8636;SDS011;4356;49.068;8.658;2022-09-03T11:40:28;2.33;;;2.23;;
8636;SDS011;4356;49.068;8.658;2022-09-03T11:43:12;6.23;;;2.50;;
8636;SDS011;4356;49.068;8.658;2022-09-03T11:46:04;4.50;;;2.50;;
8636;SDS011;4356;49.068;8.658;2022-09-03T11:48:43;2.78;;;2.58;;
8636;SDS011;4356;49.068;8.658;2022-09-03T11:56:28;2.60;;;2.50;;
8636;SDS011;4356;49.068;8.658;2022-09-03T12:01:56;2.65;;;2.55;;
8636;SDS011;4356;49.068;8.658;2022-09-03T12:04:48;2.60;;;2.50;;
8636;SDS011;4356;49.068;8.658;2022-09-03T12:07:47;3.00;;;2.80;;
8636;SDS011;4356;49.068;8.658;2022-09-03T12:14:01;2.70;;;2.60;;
8636;SDS011;4356;49.068;8.658;2022-09-03T12:21:51;2.70;;;2.60;;
8636;SDS011;4356;49.068;8.658;2022-09-03T12:24:18;2.92;;;2.63;;
8636;SDS011;4356;49.068;8.658;2022-09-03T12:26:44;2.63;;;2.42;;
8636;SDS011;4356;49.068;8.658;2022-09-03T12:32:14;3.28;;;3.08;;
8636;SDS011;4356;49.068;8.658;2022-09-03T12:34:40;3.70;;;2.30;;
8636;SDS011;4356;49.068;8.658;2022-09-03T12:37:15;3.53;;;2.70;;
8636;SDS011;4356;49.068;8.658;2022-09-03T12:39:54;2.40;;;2.20;;
8636;SDS011;4356;49.068;8.658;2022-09-03T12:42:30;4.60;;;2.67;;
8636;SDS011;4356;49.068;8.658;2022-09-03T12:45:06;4.28;;;2.55;;
8636;SDS011;4356;49.068;8.658;2022-09-03T12:47:40;2.67;;;2.58;;
8636;SDS011;4356;49.068;8.658;2022-09-03T12:50:16;2.75;;;2.60;;
8636;SDS011;4356;49.068;8.658;2022-09-03T12:52:44;4.63;;;3.00;;
8636;SDS011;4356;49.068;8.658;2022-09-03T12:55:18;3.80;;;2.65;;
8636;SDS011;4356;49.068;8.658;2022-09-03T12:57:48;3.05;;;2.70;;
8636;SDS011;4356;49.068;8.658;2022-09-03T13:00:36;2.78;;;2.67;;
8636;SDS011;4356;49.068;8.658;2022-09-03T13:03:14;3.47;;;2.83;;
8636;SDS011;4356;49.068;8.658;2022-09-03T13:05:46;2.50;;;2.40;;
8636;SDS011;4356;49.068;8.658;2022-09-03T13:08:28;3.58;;;3.10;;
8636;SDS011;4356;49.068;8.658;2022-09-03T13:11:00;4.70;;;2.85;;
8636;SDS011;4356;49.068;8.658;2022-09-03T13:13:30;2.90;;;2.67;;
8636;SDS011;4356;49.068;8.658;2022-09-03T13:19:26;2.95;;;2.65;;
8636;SDS011;4356;49.068;8.658;2022-09-03T13:22:22;3.65;;;2.50;;
8636;SDS011;4356;49.068;8.658;2022-09-03T13:27:41;2.85;;;2.75;;
8636;SDS011;4356;49.068;8.658;2022-09-03T13:30:31;8.75;;;2.90;;
8636;SDS011;4356;49.068;8.658;2022-09-03T13:33:09;2.72;;;2.63;;
8636;SDS011;4356;49.068;8.658;2022-09-03T13:44:18;2.47;;;2.35;;
8636;SDS011;4356;49.068;8.658;2022-09-03T13:46:57;2.42;;;2.15;;
8636;SDS011;4356;49.068;8.658;2022-09-03T13:49:41;2.22;;;2.13;;
8636;SDS011;4356;49.068;8.658;2022-09-03T13:52:35;2.47;;;2.10;;
8636;SDS011;4356;49.068;8.658;2022-09-03T13:55:13;2.42;;;2.22;;
8636;SDS011;4356;49.068;8.658;2022-09-03T13:57:52;3.05;;;2.60;;
8636;SDS011;4356;49.068;8.658;2022-09-03T14:00:23;2.58;;;2.47;;
8636;SDS011;4356;49.068;8.658;2022-09-03T14:17:40;2.83;;;2.72;;
8636;SDS011;4356;49.068;8.658;2022-09-03T14:22:55;3.05;;;2.80;;
8636;SDS011;4356;49.068;8.658;2022-09-03T14:25:27;2.63;;;2.53;;
8636;SDS011;4356;49.068;8.658;2022-09-03T14:27:54;2.53;;;2.33;;
8636;SDS011;4356;49.068;8.658;2022-09-03T14:30:48;2.67;;;2.55;;
8636;SDS011;4356;49.068;8.658;2022-09-03T14:33:38;2.80;;;2.60;;
8636;SDS011;4356;49.068;8.658;2022-09-03T14:41:40;2.38;;;2.28;;
8636;SDS011;4356;49.068;8.658;2022-09-03T14:47:15;2.22;;;2.13;;
8636;SDS011;4356;49.068;8.658;2022-09-03T14:53:04;2.67;;;2.22;;
8636;SDS011;4356;49.068;8.658;2022-09-03T14:58:49;2.70;;;2.50;;
8636;SDS011;4356;49.068;8.658;2022-09-03T15:01:28;2.38;;;2.28;;
8636;SDS011;4356;49.068;8.658;2022-09-03T15:09:46;2.00;;;1.90;;
8636;SDS011;4356;49.068;8.658;2022-09-03T15:12:57;2.13;;;2.00;;
8636;SDS011;4356;49.068;8.658;2022-09-03T15:31:44;2.00;;;1.90;;
8636;SDS011;4356;49.068;8.658;2022-09-03T15:37:22;2.10;;;2.00;;
8636;SDS011;4356;49.068;8.658;2022-09-03T15:42:34;2.33;;;1.73;;
8636;SDS011;4356;49.068;8.658;2022-09-03T15:45:14;1.80;;;1.70;;
8636;SDS011;4356;49.068;8.658;2022-09-03T15:50:53;1.75;;;1.63;;
8636;SDS011;4356;49.068;8.658;2022-09-03T15:53:15;1.70;;;1.60;;
8636;SDS011;4356;49.068;8.658;2022-09-03T15:56:29;1.60;;;1.60;;
8636;SDS011;4356;49.068;8.658;2022-09-03T15:58:57;1.50;;;1.50;;
8636;SDS011;4356;49.068;8.658;2022-09-03T16:10:14;3.15;;;2.10;;
8636;SDS011;4356;49.068;8.658;2022-09-03T16:12:48;2.50;;;2.30;;
8636;SDS011;4356;49.068;8.658;2022-09-03T16:15:35;2.20;;;2.10;;
8636;SDS011;4356;49.068;8.658;2022-09-03T16:20:47;2.20;;;2.10;;
8636;SDS011;4356;49.068;8.658;2022-09-03T16:26:19;1.70;;;1.70;;
8636;SDS011;4356;49.068;8.658;2022-09-03T16:29:12;2.20;;;2.10;;
8636;SDS011;4356;49.068;8.658;2022-09-03T16:40:53;1.20;;;1.20;;
8636;SDS011;4356;49.068;8.658;2022-09-03T16:51:32;0.73;;;0.73;;
8636;SDS011;4356;49.068;8.658;2022-09-03T16:56:57;0.82;;;0.82;;
8636;SDS011;4356;49.068;8.658;2022-09-03T16:59:35;1.45;;;1.35;;
8636;SDS011;4356;49.068;8.658;2022-09-03T17:07:59;1.13;;;1.02;;
8636;SDS011;4356;49.068;8.658;2022-09-03T17:10:45;0.85;;;0.85;;
8636;SDS011;4356;49.068;8.658;2022-09-03T17:24:43;0.88;;;0.88;;
8636;SDS011;4356;49.068;8.658;2022-09-03T17:33:07;1.70;;;0.85;;
8636;SDS011;4356;49.068;8.658;2022-09-03T17:44:20;0.90;;;0.90;;
8636;SDS011;4356;49.068;8.658;2022-09-03T17:49:33;1.13;;;1.13;;
8636;SDS011;4356;49.068;8.658;2022-09-03T17:55:14;2.83;;;1.10;;
8636;SDS011;4356;49.068;8.658;2022-09-03T17:57:45;1.05;;;1.02;;
8636;SDS011;4356;49.068;8.658;2022-09-03T18:05:48;1.08;;;1.08;;
8636;SDS011;4356;49.068;8.658;2022-09-03T18:08:39;1.42;;;1.20;;
8636;SDS011;4356;49.068;8.658;2022-09-03T18:14:14;1.88;;;1.77;;
8636;SDS011;4356;49.068;8.658;2022-09-03T18:16:47;1.40;;;1.30;;
8636;SDS011;4356;49.068;8.658;2022-09-03T18:21:59;9.10;;;1.85;;
8636;SDS011;4356;49.068;8.658;2022-09-03T18:24:56;1.77;;;1.67;;
8636;SDS011;4356;49.068;8.658;2022-09-03T18:28:03;14.85;;;2.22;;
8636;SDS011;4356;49.068;8.658;2022-09-03T18:30:50;1.87;;;1.53;;
8636;SDS011;4356;49.068;8.658;2022-09-03T18:33:34;13.13;;;1.70;;
8636;SDS011;4356;49.068;8.658;2022-09-03T18:36:19;2.03;;;1.33;;
8636;SDS011;4356;49.068;8.658;2022-09-03T18:39:15;6.47;;;1.40;;
8636;SDS011;4356;49.068;8.658;2022-09-03T18:45:37;6.17;;;1.30;;
8636;SDS011;4356;49.068;8.658;2022-09-03T18:48:37;13.17;;;1.50;;
8636;SDS011;4356;49.068;8.658;2022-09-03T18:51:43;6.87;;;1.43;;
8636;SDS011;4356;49.068;8.658;2022-09-03T18:54:45;7.17;;;1.43;;
8636;SDS011;4356;49.068;8.658;2022-09-03T18:57:48;8.07;;;1.60;;
8636;SDS011;4356;49.068;8.658;2022-09-03T19:07:07;6.27;;;1.67;;
8636;SDS011;4356;49.068;8.658;2022-09-03T19:25:12;2.20;;;2.00;;
8636;SDS011;4356;49.068;8.658;2022-09-03T19:28:12;2.40;;;2.30;;
8636;SDS011;4356;49.068;8.658;2022-09-03T19:46:39;1.33;;;1.33;;
8636;SDS011;4356;49.068;8.658;2022-09-03T19:55:38;1.23;;;1.23;;
8636;SDS011;4356;49.068;8.658;2022-09-03T19:58:27;1.87;;;1.70;;
8636;SDS011;4356;49.068;8.658;2022-09-03T20:01:14;1.40;;;1.30;;
8636;SDS011;4356;49.068;8.658;2022-09-03T20:04:01;2.30;;;1.63;;
8636;SDS011;4356;49.068;8.658;2022-09-03T20:06:53;2.40;;;1.40;;
8636;SDS011;4356;49.068;8.658;2022-09-03T20:09:38;1.63;;;1.50;;
8636;SDS011;4356;49.068;8.658;2022-09-03T20:12:25;1.67;;;1.57;;
8636;SDS011;4356;49.068;8.658;2022-09-03T20:14:55;3.63;;;1.40;;
8636;SDS011;4356;49.068;8.658;2022-09-03T20:17:23;1.23;;;1.23;;
8636;SDS011;4356;49.068;8.658;2022-09-03T20:25:26;1.40;;;1.33;;
8636;SDS011;4356;49.068;8.658;2022-09-03T20:28:02;1.13;;;1.13;;
8636;SDS011;4356;49.068;8.658;2022-09-03T20:30:58;1.57;;;1.47;;
8636;SDS011;4356;49.068;8.658;2022-09-03T20:33:43;1.53;;;1.47;;
8636;SDS011;4356;49.068;8.658;2022-09-03T20:48:41;1.13;;;1.13;;
8636;SDS011;4356;49.068;8.658;2022-09-03T20:51:25;1.50;;;1.40;;
8636;SDS011;4356;49.068;8.658;2022-09-03T20:56:57;1.30;;;1.20;;
8636;SDS011;4356;49.068;8.658;2022-09-03T21:11:10;2.20;;;1.43;;
8636;SDS011;4356;49.068;8.658;2022-09-03T21:16:32;1.57;;;1.57;;
8636;SDS011;4356;49.068;8.658;2022-09-03T21:19:08;2.17;;;1.20;;
8636;SDS011;4356;49.068;8.658;2022-09-03T21:24:39;1.87;;;1.40;;
8636;SDS011;4356;49.068;8.658;2022-09-03T21:27:14;1.40;;;1.40;;
8636;SDS011;4356;49.068;8.658;2022-09-03T21:29:59;1.30;;;1.30;;
8636;SDS011;4356;49.068;8.658;2022-09-03T21:37:48;1.47;;;1.40;;
8636;SDS011;4356;49.068;8.658;2022-09-03T21:40:39;1.30;;;1.30;;
8636;SDS011;4356;49.068;8.658;2022-09-03T21:43:20;1.87;;;1.37;;
8636;SDS011;4356;49.068;8.658;2022-09-03T21:46:00;2.37;;;1.53;;
8636;SDS011;4356;49.068;8.658;2022-09-03T21:48:31;2.47;;;1.73;;
8636;SDS011;4356;49.068;8.658;2022-09-03T21:54:32;2.40;;;2.30;;
8636;SDS011;4356;49.068;8.658;2022-09-03T22:02:26;2.03;;;1.93;;
8636;SDS011;4356;49.068;8.658;2022-09-03T22:04:53;1.60;;;1.50;;
8636;SDS011;4356;49.068;8.658;2022-09-03T22:10:33;1.60;;;1.60;;
8636;SDS011;4356;49.068;8.658;2022-09-03T22:13:31;2.10;;;2.00;;
8636;SDS011;4356;49.068;8.658;2022-09-03T22:18:47;1.83;;;1.73;;
8636;SDS011;4356;49.068;8.658;2022-09-03T22:21:50;2.63;;;1.53;;
8636;SDS011;4356;49.068;8.658;2022-09-03T22:27:03;2.43;;;1.77;;
8636;SDS011;4356;49.068;8.658;2022-09-03T22:30:21;1.73;;;1.63;;
8636;SDS011;4356;49.068;8.658;2022-09-03T22:33:10;1.50;;;1.50;;
8636;SDS011;4356;49.068;8.658;2022-09-03T22:35:46;1.83;;;1.73;;